sensor_id;sensor_type;location;lat;lon;timestamp;P1;durP1;ratioP1;P2;durP2;ratioP2
51838;SDS011;37886;53.174;6.368;2023-05-10T00:01:07;31.20;;;22.90;;
51838;SDS011;37886;53.174;6.368;2023-05-10T00:03:33;31.85;;;24.50;;
51838;SDS011;37886;53.174;6.368;2023-05-10T00:05:59;28.77;;;23.90;;
51838;SDS011;37886;53.174;6.368;2023-05-10T00:08:24;29.52;;;23.63;;
51838;SDS011;37886;53.174;6.368;2023-05-10T00:10:50;35.70;;;25.35;;
51838;SDS011;37886;53.174;6.368;2023-05-10T00:13:16;30.08;;;23.63;;
51838;SDS011;37886;53.174;6.368;2023-05-10T00:15:41;27.27;;;22.70;;
51838;SDS011;37886;53.174;6.368;2023-05-10T00:18:07;25.42;;;21.40;;
51838;SDS011;37886;53.174;6.368;2023-05-10T00:20:33;28.13;;;22.77;;
51838;SDS011;37886;53.174;6.368;2023-05-10T00:22:58;27.95;;;23.08;;
51838;SDS011;37886;53.174;6.368;2023-05-10T00:25:24;26.27;;;22.33;;
51838;SDS011;37886;53.174;6.368;2023-05-10T00:27:50;25.35;;;22.45;;
51838;SDS011;37886;53.174;6.368;2023-05-10T00:30:15;30.10;;;23.25;;
51838;SDS011;37886;53.174;6.368;2023-05-10T00:32:41;23.58;;;21.08;;
51838;SDS011;37886;53.174;6.368;2023-05-10T00:35:08;23.67;;;20.60;;
51838;SDS011;37886;53.174;6.368;2023-05-10T00:37:34;22.27;;;19.98;;
51838;SDS011;37886;53.174;6.368;2023-05-10T00:40:00;23.88;;;19.83;;
51838;SDS011;37886;53.174;6.368;2023-05-10T00:42:26;24.33;;;20.98;;
51838;SDS011;37886;53.174;6.368;2023-05-10T00:44:51;27.45;;;22.70;;
51838;SDS011;37886;53.174;6.368;2023-05-10T00:47:17;32.08;;;23.38;;
51838;SDS011;37886;53.174;6.368;2023-05-10T00:49:43;31.63;;;26.55;;
51838;SDS011;37886;53.174;6.368;2023-05-10T00:52:09;28.67;;;25.00;;
51838;SDS011;37886;53.174;6.368;2023-05-10T00:54:35;28.38;;;24.42;;
51838;SDS011;37886;53.174;6.368;2023-05-10T00:57:02;29.98;;;24.02;;
51838;SDS011;37886;53.174;6.368;2023-05-10T00:59:28;32.03;;;24.88;;
51838;SDS011;37886;53.174;6.368;2023-05-10T01:01:54;30.70;;;24.08;;
51838;SDS011;37886;53.174;6.368;2023-05-10T01:04:20;26.95;;;21.92;;
51838;SDS011;37886;53.174;6.368;2023-05-10T01:06:50;25.27;;;21.10;;
51838;SDS011;37886;53.174;6.368;2023-05-10T01:09:17;25.45;;;21.58;;
51838;SDS011;37886;53.174;6.368;2023-05-10T01:11:44;22.52;;;20.17;;
51838;SDS011;37886;53.174;6.368;2023-05-10T01:14:10;22.65;;;20.23;;
51838;SDS011;37886;53.174;6.368;2023-05-10T01:16:37;23.45;;;20.95;;
51838;SDS011;37886;53.174;6.368;2023-05-10T01:19:15;25.23;;;21.60;;
51838;SDS011;37886;53.174;6.368;2023-05-10T01:27:17;22.88;;;20.30;;
51838;SDS011;37886;53.174;6.368;2023-05-10T01:30:05;27.70;;;21.40;;
51838;SDS011;37886;53.174;6.368;2023-05-10T01:35:21;24.90;;;21.10;;
51838;SDS011;37886;53.174;6.368;2023-05-10T01:37:55;23.42;;;20.92;;
51838;SDS011;37886;53.174;6.368;2023-05-10T01:40:30;23.08;;;20.73;;
51838;SDS011;37886;53.174;6.368;2023-05-10T01:43:02;23.70;;;20.50;;
51838;SDS011;37886;53.174;6.368;2023-05-10T01:48:03;21.33;;;19.17;;
51838;SDS011;37886;53.174;6.368;2023-05-10T01:50:32;22.20;;;19.95;;
51838;SDS011;37886;53.174;6.368;2023-05-10T01:53:00;22.92;;;20.65;;
51838;SDS011;37886;53.174;6.368;2023-05-10T01:55:32;22.52;;;20.25;;
51838;SDS011;37886;53.174;6.368;2023-05-10T01:58:10;23.65;;;20.88;;
51838;SDS011;37886;53.174;6.368;2023-05-10T02:00:42;24.00;;;21.58;;
51838;SDS011;37886;53.174;6.368;2023-05-10T02:03:09;26.83;;;21.25;;
51838;SDS011;37886;53.174;6.368;2023-05-10T02:05:36;23.33;;;20.83;;
51838;SDS011;37886;53.174;6.368;2023-05-10T02:08:05;24.98;;;22.23;;
51838;SDS011;37886;53.174;6.368;2023-05-10T02:10:34;25.70;;;23.00;;
51838;SDS011;37886;53.174;6.368;2023-05-10T02:13:01;27.40;;;23.48;;
51838;SDS011;37886;53.174;6.368;2023-05-10T02:15:27;29.27;;;24.30;;
51838;SDS011;37886;53.174;6.368;2023-05-10T02:17:55;32.63;;;26.30;;
51838;SDS011;37886;53.174;6.368;2023-05-10T02:20:22;30.33;;;25.33;;
51838;SDS011;37886;53.174;6.368;2023-05-10T02:22:49;29.60;;;24.92;;
51838;SDS011;37886;53.174;6.368;2023-05-10T02:25:17;32.25;;;26.02;;
51838;SDS011;37886;53.174;6.368;2023-05-10T02:27:45;36.65;;;27.67;;
51838;SDS011;37886;53.174;6.368;2023-05-10T02:30:12;35.35;;;27.75;;
51838;SDS011;37886;53.174;6.368;2023-05-10T02:32:38;33.83;;;27.00;;
51838;SDS011;37886;53.174;6.368;2023-05-10T02:35:05;37.58;;;29.48;;
51838;SDS011;37886;53.174;6.368;2023-05-10T02:37:32;43.95;;;30.60;;
51838;SDS011;37886;53.174;6.368;2023-05-10T02:39:59;41.17;;;30.15;;
51838;SDS011;37886;53.174;6.368;2023-05-10T02:42:28;36.63;;;29.52;;
51838;SDS011;37886;53.174;6.368;2023-05-10T02:44:59;35.75;;;27.92;;
51838;SDS011;37886;53.174;6.368;2023-05-10T02:47:27;32.47;;;28.00;;
51838;SDS011;37886;53.174;6.368;2023-05-10T02:49:54;39.38;;;29.17;;
51838;SDS011;37886;53.174;6.368;2023-05-10T02:52:25;36.03;;;28.65;;
51838;SDS011;37886;53.174;6.368;2023-05-10T02:54:58;39.70;;;32.30;;
51838;SDS011;37886;53.174;6.368;2023-05-10T02:57:28;38.17;;;29.38;;
51838;SDS011;37886;53.174;6.368;2023-05-10T02:59:59;36.63;;;29.83;;
51838;SDS011;37886;53.174;6.368;2023-05-10T03:02:25;44.00;;;32.72;;
51838;SDS011;37886;53.174;6.368;2023-05-10T03:04:51;47.22;;;33.10;;
51838;SDS011;37886;53.174;6.368;2023-05-10T03:07:17;51.38;;;35.15;;
51838;SDS011;37886;53.174;6.368;2023-05-10T03:09:46;52.00;;;34.80;;
51838;SDS011;37886;53.174;6.368;2023-05-10T03:15:04;59.07;;;38.40;;
51838;SDS011;37886;53.174;6.368;2023-05-10T03:20:12;59.15;;;37.05;;
51838;SDS011;37886;53.174;6.368;2023-05-10T03:22:47;61.17;;;37.60;;
51838;SDS011;37886;53.174;6.368;2023-05-10T03:25:18;62.38;;;38.10;;
51838;SDS011;37886;53.174;6.368;2023-05-10T03:27:46;61.60;;;37.13;;
51838;SDS011;37886;53.174;6.368;2023-05-10T03:30:12;69.05;;;37.85;;
51838;SDS011;37886;53.174;6.368;2023-05-10T03:32:39;66.10;;;37.25;;
51838;SDS011;37886;53.174;6.368;2023-05-10T03:35:08;77.07;;;40.20;;
51838;SDS011;37886;53.174;6.368;2023-05-10T03:37:35;74.67;;;37.40;;
51838;SDS011;37886;53.174;6.368;2023-05-10T03:40:01;71.97;;;39.13;;
51838;SDS011;37886;53.174;6.368;2023-05-10T03:42:27;75.10;;;38.53;;
51838;SDS011;37886;53.174;6.368;2023-05-10T03:44:53;74.35;;;39.03;;
51838;SDS011;37886;53.174;6.368;2023-05-10T03:47:19;76.35;;;37.40;;
51838;SDS011;37886;53.174;6.368;2023-05-10T03:49:45;70.93;;;37.47;;
51838;SDS011;37886;53.174;6.368;2023-05-10T03:52:10;76.30;;;36.92;;
51838;SDS011;37886;53.174;6.368;2023-05-10T03:54:37;73.10;;;36.40;;
51838;SDS011;37886;53.174;6.368;2023-05-10T03:57:02;65.13;;;35.92;;
51838;SDS011;37886;53.174;6.368;2023-05-10T03:59:29;64.45;;;36.55;;
51838;SDS011;37886;53.174;6.368;2023-05-10T04:01:54;61.47;;;34.72;;
51838;SDS011;37886;53.174;6.368;2023-05-10T04:04:20;55.85;;;31.23;;
51838;SDS011;37886;53.174;6.368;2023-05-10T04:06:47;52.65;;;30.98;;
51838;SDS011;37886;53.174;6.368;2023-05-10T04:09:12;56.58;;;28.17;;
51838;SDS011;37886;53.174;6.368;2023-05-10T04:11:39;36.83;;;23.60;;
51838;SDS011;37886;53.174;6.368;2023-05-10T04:14:04;32.67;;;21.40;;
51838;SDS011;37886;53.174;6.368;2023-05-10T04:16:30;32.17;;;20.65;;
51838;SDS011;37886;53.174;6.368;2023-05-10T04:18:56;22.85;;;17.77;;
51838;SDS011;37886;53.174;6.368;2023-05-10T04:21:22;19.55;;;16.92;;
51838;SDS011;37886;53.174;6.368;2023-05-10T04:23:48;16.55;;;15.05;;
51838;SDS011;37886;53.174;6.368;2023-05-10T04:26:13;17.00;;;15.25;;
51838;SDS011;37886;53.174;6.368;2023-05-10T04:28:40;16.10;;;14.43;;
51838;SDS011;37886;53.174;6.368;2023-05-10T04:31:06;15.02;;;13.52;;
51838;SDS011;37886;53.174;6.368;2023-05-10T04:33:33;15.23;;;13.63;;
51838;SDS011;37886;53.174;6.368;2023-05-10T04:35:59;15.35;;;13.93;;
51838;SDS011;37886;53.174;6.368;2023-05-10T04:38:26;16.45;;;14.93;;
51838;SDS011;37886;53.174;6.368;2023-05-10T04:40:52;21.15;;;15.98;;
51838;SDS011;37886;53.174;6.368;2023-05-10T04:43:18;22.05;;;17.02;;
51838;SDS011;37886;53.174;6.368;2023-05-10T04:45:44;25.17;;;17.20;;
51838;SDS011;37886;53.174;6.368;2023-05-10T04:48:09;25.88;;;17.63;;
51838;SDS011;37886;53.174;6.368;2023-05-10T04:50:35;28.75;;;17.40;;
51838;SDS011;37886;53.174;6.368;2023-05-10T04:53:01;24.85;;;19.25;;
51838;SDS011;37886;53.174;6.368;2023-05-10T04:55:27;25.00;;;18.33;;
51838;SDS011;37886;53.174;6.368;2023-05-10T04:57:53;24.15;;;17.92;;
51838;SDS011;37886;53.174;6.368;2023-05-10T05:00:21;27.10;;;19.05;;
51838;SDS011;37886;53.174;6.368;2023-05-10T05:02:48;28.48;;;18.95;;
51838;SDS011;37886;53.174;6.368;2023-05-10T05:05:13;33.05;;;20.73;;
51838;SDS011;37886;53.174;6.368;2023-05-10T05:07:39;33.55;;;20.90;;
51838;SDS011;37886;53.174;6.368;2023-05-10T05:10:06;34.03;;;21.25;;
51838;SDS011;37886;53.174;6.368;2023-05-10T05:12:32;28.70;;;20.33;;
51838;SDS011;37886;53.174;6.368;2023-05-10T05:14:58;32.15;;;21.13;;
51838;SDS011;37886;53.174;6.368;2023-05-10T05:17:24;36.83;;;21.13;;
51838;SDS011;37886;53.174;6.368;2023-05-10T05:19:49;33.50;;;20.58;;
51838;SDS011;37886;53.174;6.368;2023-05-10T05:22:15;38.30;;;20.65;;
51838;SDS011;37886;53.174;6.368;2023-05-10T05:24:41;43.58;;;21.35;;
51838;SDS011;37886;53.174;6.368;2023-05-10T05:27:06;34.20;;;20.80;;
51838;SDS011;37886;53.174;6.368;2023-05-10T05:29:32;26.63;;;20.00;;
51838;SDS011;37886;53.174;6.368;2023-05-10T05:31:58;29.52;;;19.73;;
51838;SDS011;37886;53.174;6.368;2023-05-10T05:34:23;32.15;;;19.25;;
51838;SDS011;37886;53.174;6.368;2023-05-10T05:36:49;32.33;;;20.45;;
51838;SDS011;37886;53.174;6.368;2023-05-10T05:39:15;29.55;;;20.58;;
51838;SDS011;37886;53.174;6.368;2023-05-10T05:41:41;31.38;;;20.55;;
51838;SDS011;37886;53.174;6.368;2023-05-10T05:44:07;29.95;;;19.70;;
51838;SDS011;37886;53.174;6.368;2023-05-10T05:46:33;21.75;;;17.58;;
51838;SDS011;37886;53.174;6.368;2023-05-10T05:48:58;24.65;;;19.33;;
51838;SDS011;37886;53.174;6.368;2023-05-10T05:51:24;24.90;;;18.67;;
51838;SDS011;37886;53.174;6.368;2023-05-10T05:53:50;28.17;;;18.63;;
51838;SDS011;37886;53.174;6.368;2023-05-10T05:56:15;33.35;;;19.90;;
51838;SDS011;37886;53.174;6.368;2023-05-10T05:58:42;29.25;;;19.77;;
51838;SDS011;37886;53.174;6.368;2023-05-10T06:01:09;27.95;;;19.92;;
51838;SDS011;37886;53.174;6.368;2023-05-10T06:03:35;34.15;;;21.35;;
51838;SDS011;37886;53.174;6.368;2023-05-10T06:06:00;37.97;;;23.67;;
51838;SDS011;37886;53.174;6.368;2023-05-10T06:08:26;46.65;;;26.90;;
51838;SDS011;37886;53.174;6.368;2023-05-10T06:10:52;45.28;;;27.08;;
51838;SDS011;37886;53.174;6.368;2023-05-10T06:13:17;50.83;;;28.90;;
51838;SDS011;37886;53.174;6.368;2023-05-10T06:15:43;65.05;;;31.52;;
51838;SDS011;37886;53.174;6.368;2023-05-10T06:18:12;66.80;;;34.78;;
51838;SDS011;37886;53.174;6.368;2023-05-10T06:20:37;64.57;;;33.92;;
51838;SDS011;37886;53.174;6.368;2023-05-10T06:23:03;35.08;;;25.95;;
51838;SDS011;37886;53.174;6.368;2023-05-10T06:25:29;33.65;;;25.10;;
51838;SDS011;37886;53.174;6.368;2023-05-10T06:27:54;24.45;;;19.58;;
51838;SDS011;37886;53.174;6.368;2023-05-10T06:30:23;22.85;;;19.58;;
51838;SDS011;37886;53.174;6.368;2023-05-10T06:32:52;16.92;;;15.23;;
51838;SDS011;37886;53.174;6.368;2023-05-10T06:35:18;15.35;;;13.75;;
51838;SDS011;37886;53.174;6.368;2023-05-10T06:37:44;13.07;;;11.88;;
51838;SDS011;37886;53.174;6.368;2023-05-10T06:40:10;12.20;;;11.20;;
51838;SDS011;37886;53.174;6.368;2023-05-10T06:42:35;11.85;;;10.90;;
51838;SDS011;37886;53.174;6.368;2023-05-10T06:45:01;11.43;;;10.35;;
51838;SDS011;37886;53.174;6.368;2023-05-10T06:47:27;10.93;;;10.05;;
51838;SDS011;37886;53.174;6.368;2023-05-10T06:49:53;10.82;;;9.85;;
51838;SDS011;37886;53.174;6.368;2023-05-10T06:52:18;11.90;;;10.90;;
51838;SDS011;37886;53.174;6.368;2023-05-10T06:54:44;11.73;;;10.63;;
51838;SDS011;37886;53.174;6.368;2023-05-10T06:57:10;11.38;;;10.18;;
51838;SDS011;37886;53.174;6.368;2023-05-10T06:59:36;11.38;;;10.38;;
51838;SDS011;37886;53.174;6.368;2023-05-10T07:02:01;11.77;;;10.77;;
51838;SDS011;37886;53.174;6.368;2023-05-10T07:04:27;11.57;;;10.63;;
51838;SDS011;37886;53.174;6.368;2023-05-10T07:06:53;11.25;;;10.35;;
51838;SDS011;37886;53.174;6.368;2023-05-10T07:09:18;12.25;;;11.25;;
51838;SDS011;37886;53.174;6.368;2023-05-10T07:11:44;12.15;;;11.15;;
51838;SDS011;37886;53.174;6.368;2023-05-10T07:14:10;12.35;;;11.35;;
51838;SDS011;37886;53.174;6.368;2023-05-10T07:16:35;12.40;;;11.40;;
51838;SDS011;37886;53.174;6.368;2023-05-10T07:19:01;14.35;;;13.15;;
51838;SDS011;37886;53.174;6.368;2023-05-10T07:21:27;14.35;;;13.15;;
51838;SDS011;37886;53.174;6.368;2023-05-10T07:23:54;14.68;;;12.77;;
51838;SDS011;37886;53.174;6.368;2023-05-10T07:26:19;13.43;;;12.23;;
51838;SDS011;37886;53.174;6.368;2023-05-10T07:28:46;13.93;;;12.63;;
51838;SDS011;37886;53.174;6.368;2023-05-10T07:31:12;14.05;;;12.73;;
51838;SDS011;37886;53.174;6.368;2023-05-10T07:33:37;13.63;;;12.43;;
51838;SDS011;37886;53.174;6.368;2023-05-10T07:36:03;12.77;;;11.80;;
51838;SDS011;37886;53.174;6.368;2023-05-10T07:38:29;13.57;;;12.43;;
51838;SDS011;37886;53.174;6.368;2023-05-10T07:40:54;12.98;;;11.98;;
51838;SDS011;37886;53.174;6.368;2023-05-10T07:43:20;13.43;;;12.23;;
51838;SDS011;37886;53.174;6.368;2023-05-10T07:45:46;13.32;;;12.10;;
51838;SDS011;37886;53.174;6.368;2023-05-10T07:48:11;14.48;;;13.18;;
51838;SDS011;37886;53.174;6.368;2023-05-10T07:50:37;13.30;;;12.13;;
51838;SDS011;37886;53.174;6.368;2023-05-10T07:53:03;13.57;;;12.18;;
51838;SDS011;37886;53.174;6.368;2023-05-10T07:55:28;14.93;;;13.52;;
51838;SDS011;37886;53.174;6.368;2023-05-10T07:57:54;14.40;;;13.30;;
51838;SDS011;37886;53.174;6.368;2023-05-10T08:00:20;17.13;;;13.23;;
51838;SDS011;37886;53.174;6.368;2023-05-10T08:02:46;14.63;;;13.13;;
51838;SDS011;37886;53.174;6.368;2023-05-10T08:05:12;14.68;;;13.30;;
51838;SDS011;37886;53.174;6.368;2023-05-10T08:07:38;15.65;;;14.30;;
51838;SDS011;37886;53.174;6.368;2023-05-10T08:10:04;15.02;;;13.82;;
51838;SDS011;37886;53.174;6.368;2023-05-10T08:12:30;14.88;;;13.63;;
51838;SDS011;37886;53.174;6.368;2023-05-10T08:14:56;15.88;;;14.43;;
51838;SDS011;37886;53.174;6.368;2023-05-10T08:17:22;18.17;;;14.98;;
51838;SDS011;37886;53.174;6.368;2023-05-10T08:19:47;17.02;;;15.55;;
51838;SDS011;37886;53.174;6.368;2023-05-10T08:22:13;18.42;;;16.83;;
51838;SDS011;37886;53.174;6.368;2023-05-10T08:24:39;17.20;;;15.60;;
51838;SDS011;37886;53.174;6.368;2023-05-10T08:27:07;16.27;;;14.98;;
51838;SDS011;37886;53.174;6.368;2023-05-10T08:29:33;17.42;;;15.65;;
51838;SDS011;37886;53.174;6.368;2023-05-10T08:31:59;17.25;;;15.65;;
51838;SDS011;37886;53.174;6.368;2023-05-10T08:34:26;17.02;;;15.25;;
51838;SDS011;37886;53.174;6.368;2023-05-10T08:36:52;17.40;;;15.48;;
51838;SDS011;37886;53.174;6.368;2023-05-10T08:39:17;17.10;;;15.70;;
51838;SDS011;37886;53.174;6.368;2023-05-10T08:41:44;17.88;;;16.13;;
51838;SDS011;37886;53.174;6.368;2023-05-10T08:44:11;18.25;;;16.58;;
51838;SDS011;37886;53.174;6.368;2023-05-10T08:46:37;17.42;;;15.80;;
51838;SDS011;37886;53.174;6.368;2023-05-10T08:49:09;20.55;;;16.67;;
51838;SDS011;37886;53.174;6.368;2023-05-10T08:51:43;21.38;;;17.30;;
51838;SDS011;37886;53.174;6.368;2023-05-10T08:54:14;19.15;;;17.30;;
51838;SDS011;37886;53.174;6.368;2023-05-10T08:56:40;21.48;;;19.17;;
51838;SDS011;37886;53.174;6.368;2023-05-10T08:59:06;18.60;;;16.77;;
51838;SDS011;37886;53.174;6.368;2023-05-10T09:01:32;19.67;;;17.13;;
51838;SDS011;37886;53.174;6.368;2023-05-10T09:04:00;18.90;;;17.05;;
51838;SDS011;37886;53.174;6.368;2023-05-10T09:06:26;19.83;;;17.83;;
51838;SDS011;37886;53.174;6.368;2023-05-10T09:08:52;18.60;;;16.90;;
51838;SDS011;37886;53.174;6.368;2023-05-10T09:11:18;17.73;;;15.90;;
51838;SDS011;37886;53.174;6.368;2023-05-10T09:13:46;18.05;;;16.25;;
51838;SDS011;37886;53.174;6.368;2023-05-10T09:16:13;21.02;;;16.50;;
51838;SDS011;37886;53.174;6.368;2023-05-10T09:18:39;18.60;;;16.70;;
51838;SDS011;37886;53.174;6.368;2023-05-10T09:21:05;17.58;;;15.88;;
51838;SDS011;37886;53.174;6.368;2023-05-10T09:23:30;19.65;;;17.75;;
51838;SDS011;37886;53.174;6.368;2023-05-10T09:26:06;19.80;;;18.00;;
51838;SDS011;37886;53.174;6.368;2023-05-10T09:28:50;20.00;;;18.20;;
51838;SDS011;37886;53.174;6.368;2023-05-10T09:31:17;18.65;;;16.73;;
51838;SDS011;37886;53.174;6.368;2023-05-10T09:33:44;19.05;;;17.30;;
51838;SDS011;37886;53.174;6.368;2023-05-10T09:36:11;19.48;;;17.85;;
51838;SDS011;37886;53.174;6.368;2023-05-10T09:38:50;18.63;;;17.00;;
51838;SDS011;37886;53.174;6.368;2023-05-10T09:41:23;19.67;;;17.83;;
51838;SDS011;37886;53.174;6.368;2023-05-10T09:43:50;17.73;;;16.08;;
51838;SDS011;37886;53.174;6.368;2023-05-10T09:46:20;18.30;;;16.60;;
51838;SDS011;37886;53.174;6.368;2023-05-10T09:48:46;18.08;;;16.55;;
51838;SDS011;37886;53.174;6.368;2023-05-10T09:51:22;17.17;;;15.65;;
51838;SDS011;37886;53.174;6.368;2023-05-10T09:56:35;15.65;;;14.30;;
51838;SDS011;37886;53.174;6.368;2023-05-10T09:59:02;15.23;;;13.88;;
51838;SDS011;37886;53.174;6.368;2023-05-10T10:01:28;14.90;;;13.50;;
51838;SDS011;37886;53.174;6.368;2023-05-10T10:03:55;14.93;;;13.48;;
51838;SDS011;37886;53.174;6.368;2023-05-10T10:06:23;14.52;;;13.35;;
51838;SDS011;37886;53.174;6.368;2023-05-10T10:08:49;13.57;;;12.18;;
51838;SDS011;37886;53.174;6.368;2023-05-10T10:11:16;15.10;;;13.65;;
51838;SDS011;37886;53.174;6.368;2023-05-10T10:13:42;14.27;;;13.00;;
51838;SDS011;37886;53.174;6.368;2023-05-10T10:16:08;13.48;;;12.40;;
51838;SDS011;37886;53.174;6.368;2023-05-10T10:18:35;13.88;;;12.77;;
51838;SDS011;37886;53.174;6.368;2023-05-10T10:21:05;13.18;;;12.07;;
51838;SDS011;37886;53.174;6.368;2023-05-10T10:23:37;13.82;;;12.82;;
51838;SDS011;37886;53.174;6.368;2023-05-10T10:26:03;13.18;;;12.15;;
51838;SDS011;37886;53.174;6.368;2023-05-10T10:28:33;12.57;;;11.57;;
51838;SDS011;37886;53.174;6.368;2023-05-10T10:31:02;14.43;;;13.23;;
51838;SDS011;37886;53.174;6.368;2023-05-10T10:34:00;13.98;;;12.77;;
51838;SDS011;37886;53.174;6.368;2023-05-10T10:36:27;14.98;;;13.63;;
51838;SDS011;37886;53.174;6.368;2023-05-10T10:39:00;14.32;;;13.07;;
51838;SDS011;37886;53.174;6.368;2023-05-10T10:41:28;14.50;;;13.30;;
51838;SDS011;37886;53.174;6.368;2023-05-10T10:49:45;15.00;;;13.48;;
51838;SDS011;37886;53.174;6.368;2023-05-10T10:57:31;14.93;;;13.32;;
51838;SDS011;37886;53.174;6.368;2023-05-10T11:03:10;16.58;;;14.20;;
51838;SDS011;37886;53.174;6.368;2023-05-10T11:05:43;14.95;;;13.38;;
51838;SDS011;37886;53.174;6.368;2023-05-10T11:08:10;14.65;;;13.25;;
51838;SDS011;37886;53.174;6.368;2023-05-10T11:10:37;16.05;;;14.48;;
51838;SDS011;37886;53.174;6.368;2023-05-10T11:13:04;19.52;;;14.30;;
51838;SDS011;37886;53.174;6.368;2023-05-10T11:15:35;15.05;;;13.60;;
51838;SDS011;37886;53.174;6.368;2023-05-10T11:20:59;14.68;;;13.27;;
51838;SDS011;37886;53.174;6.368;2023-05-10T11:23:47;14.98;;;13.48;;
51838;SDS011;37886;53.174;6.368;2023-05-10T11:26:14;14.75;;;13.32;;
51838;SDS011;37886;53.174;6.368;2023-05-10T11:28:41;16.60;;;13.80;;
51838;SDS011;37886;53.174;6.368;2023-05-10T11:31:07;16.35;;;13.80;;
51838;SDS011;37886;53.174;6.368;2023-05-10T11:33:43;15.27;;;13.32;;
51838;SDS011;37886;53.174;6.368;2023-05-10T11:36:43;17.45;;;15.60;;
51838;SDS011;37886;53.174;6.368;2023-05-10T11:39:02;17.98;;;15.70;;
51838;SDS011;37886;53.174;6.368;2023-05-10T11:41:28;17.27;;;15.23;;
51838;SDS011;37886;53.174;6.368;2023-05-10T11:43:56;17.00;;;14.90;;
51838;SDS011;37886;53.174;6.368;2023-05-10T11:46:26;19.50;;;15.90;;
51838;SDS011;37886;53.174;6.368;2023-05-10T11:51:24;19.48;;;16.35;;
51838;SDS011;37886;53.174;6.368;2023-05-10T11:53:51;18.58;;;16.30;;
51838;SDS011;37886;53.174;6.368;2023-05-10T11:56:18;17.92;;;15.88;;
51838;SDS011;37886;53.174;6.368;2023-05-10T11:58:51;20.75;;;16.02;;
51838;SDS011;37886;53.174;6.368;2023-05-10T12:01:21;20.95;;;16.33;;
51838;SDS011;37886;53.174;6.368;2023-05-10T12:03:49;17.63;;;15.80;;
51838;SDS011;37886;53.174;6.368;2023-05-10T12:06:17;17.33;;;15.52;;
51838;SDS011;37886;53.174;6.368;2023-05-10T12:08:44;16.35;;;14.05;;
51838;SDS011;37886;53.174;6.368;2023-05-10T12:11:11;16.20;;;14.52;;
51838;SDS011;37886;53.174;6.368;2023-05-10T12:13:42;15.02;;;13.48;;
51838;SDS011;37886;53.174;6.368;2023-05-10T12:18:51;14.50;;;13.10;;
51838;SDS011;37886;53.174;6.368;2023-05-10T12:21:18;14.90;;;13.00;;
51838;SDS011;37886;53.174;6.368;2023-05-10T12:23:56;15.23;;;13.63;;
51838;SDS011;37886;53.174;6.368;2023-05-10T12:26:25;21.85;;;13.88;;
51838;SDS011;37886;53.174;6.368;2023-05-10T12:28:53;15.55;;;13.05;;
51838;SDS011;37886;53.174;6.368;2023-05-10T12:31:19;15.80;;;12.80;;
51838;SDS011;37886;53.174;6.368;2023-05-10T12:33:46;14.98;;;13.32;;
51838;SDS011;37886;53.174;6.368;2023-05-10T12:36:14;14.50;;;12.95;;
51838;SDS011;37886;53.174;6.368;2023-05-10T12:38:41;15.32;;;13.75;;
51838;SDS011;37886;53.174;6.368;2023-05-10T12:41:12;15.73;;;14.05;;
51838;SDS011;37886;53.174;6.368;2023-05-10T12:43:40;16.38;;;14.38;;
51838;SDS011;37886;53.174;6.368;2023-05-10T12:48:36;14.90;;;13.40;;
51838;SDS011;37886;53.174;6.368;2023-05-10T12:51:03;16.95;;;13.70;;
51838;SDS011;37886;53.174;6.368;2023-05-10T12:53:30;16.17;;;14.57;;
51838;SDS011;37886;53.174;6.368;2023-05-10T12:55:56;15.27;;;13.73;;
51838;SDS011;37886;53.174;6.368;2023-05-10T12:58:22;16.45;;;14.70;;
51838;SDS011;37886;53.174;6.368;2023-05-10T13:00:48;15.60;;;13.52;;
51838;SDS011;37886;53.174;6.368;2023-05-10T13:03:14;14.02;;;12.63;;
51838;SDS011;37886;53.174;6.368;2023-05-10T13:05:40;14.32;;;12.68;;
51838;SDS011;37886;53.174;6.368;2023-05-10T13:08:06;14.90;;;13.43;;
51838;SDS011;37886;53.174;6.368;2023-05-10T13:10:32;14.63;;;13.10;;
51838;SDS011;37886;53.174;6.368;2023-05-10T13:12:58;13.48;;;12.27;;
51838;SDS011;37886;53.174;6.368;2023-05-10T13:15:25;13.13;;;11.90;;
51838;SDS011;37886;53.174;6.368;2023-05-10T13:17:51;12.90;;;10.90;;
51838;SDS011;37886;53.174;6.368;2023-05-10T13:20:18;13.23;;;11.88;;
51838;SDS011;37886;53.174;6.368;2023-05-10T13:22:44;13.88;;;10.85;;
51838;SDS011;37886;53.174;6.368;2023-05-10T13:25:10;13.27;;;11.20;;
51838;SDS011;37886;53.174;6.368;2023-05-10T13:27:36;13.75;;;12.45;;
51838;SDS011;37886;53.174;6.368;2023-05-10T13:30:03;12.38;;;11.20;;
51838;SDS011;37886;53.174;6.368;2023-05-10T13:32:29;12.75;;;11.55;;
51838;SDS011;37886;53.174;6.368;2023-05-10T13:34:55;12.98;;;11.70;;
51838;SDS011;37886;53.174;6.368;2023-05-10T13:37:21;13.05;;;11.93;;
51838;SDS011;37886;53.174;6.368;2023-05-10T13:39:47;14.55;;;12.55;;
51838;SDS011;37886;53.174;6.368;2023-05-10T13:42:13;14.57;;;13.00;;
51838;SDS011;37886;53.174;6.368;2023-05-10T13:44:39;15.07;;;13.50;;
51838;SDS011;37886;53.174;6.368;2023-05-10T13:47:05;15.27;;;13.70;;
51838;SDS011;37886;53.174;6.368;2023-05-10T13:49:31;14.07;;;12.70;;
51838;SDS011;37886;53.174;6.368;2023-05-10T13:51:57;14.30;;;12.98;;
51838;SDS011;37886;53.174;6.368;2023-05-10T13:54:23;13.85;;;12.60;;
51838;SDS011;37886;53.174;6.368;2023-05-10T13:56:49;13.52;;;12.10;;
51838;SDS011;37886;53.174;6.368;2023-05-10T13:59:14;13.30;;;12.00;;
51838;SDS011;37886;53.174;6.368;2023-05-10T14:01:40;13.57;;;12.25;;
51838;SDS011;37886;53.174;6.368;2023-05-10T14:04:07;15.07;;;13.65;;
51838;SDS011;37886;53.174;6.368;2023-05-10T14:06:35;15.38;;;13.88;;
51838;SDS011;37886;53.174;6.368;2023-05-10T14:09:01;15.60;;;14.20;;
51838;SDS011;37886;53.174;6.368;2023-05-10T14:11:30;16.08;;;14.38;;
51838;SDS011;37886;53.174;6.368;2023-05-10T14:13:56;16.00;;;14.45;;
51838;SDS011;37886;53.174;6.368;2023-05-10T14:16:21;16.38;;;14.68;;
51838;SDS011;37886;53.174;6.368;2023-05-10T14:18:47;17.33;;;15.55;;
51838;SDS011;37886;53.174;6.368;2023-05-10T14:21:13;16.65;;;14.95;;
51838;SDS011;37886;53.174;6.368;2023-05-10T14:23:38;16.73;;;14.80;;
51838;SDS011;37886;53.174;6.368;2023-05-10T14:26:04;19.00;;;14.63;;
51838;SDS011;37886;53.174;6.368;2023-05-10T14:28:31;16.52;;;14.82;;
51838;SDS011;37886;53.174;6.368;2023-05-10T14:30:57;15.98;;;14.27;;
51838;SDS011;37886;53.174;6.368;2023-05-10T14:33:24;16.27;;;14.68;;
51838;SDS011;37886;53.174;6.368;2023-05-10T14:35:50;16.48;;;14.73;;
51838;SDS011;37886;53.174;6.368;2023-05-10T14:38:16;16.50;;;14.80;;
51838;SDS011;37886;53.174;6.368;2023-05-10T14:40:42;19.83;;;15.82;;
51838;SDS011;37886;53.174;6.368;2023-05-10T14:43:08;15.73;;;13.10;;
51838;SDS011;37886;53.174;6.368;2023-05-10T14:45:34;15.02;;;13.50;;
51838;SDS011;37886;53.174;6.368;2023-05-10T14:47:59;14.27;;;12.88;;
51838;SDS011;37886;53.174;6.368;2023-05-10T14:50:25;15.18;;;13.68;;
51838;SDS011;37886;53.174;6.368;2023-05-10T14:52:51;15.25;;;13.02;;
51838;SDS011;37886;53.174;6.368;2023-05-10T14:55:16;16.10;;;14.50;;
51838;SDS011;37886;53.174;6.368;2023-05-10T14:57:42;18.83;;;14.32;;
51838;SDS011;37886;53.174;6.368;2023-05-10T15:00:09;17.08;;;14.85;;
51838;SDS011;37886;53.174;6.368;2023-05-10T15:02:35;16.83;;;14.32;;
51838;SDS011;37886;53.174;6.368;2023-05-10T15:05:01;15.82;;;14.20;;